Terminal Aerodrome Forecast
Issued by NWS Charleston, WV

Current Version | Previous Version | Graphics & Text | Print | Product List | Glossary On
Versions: 1 2 3 4 5 6 7 8 9 10 11 12 13 14 15 16 17 18 19 20 21 22 23 24 25 26 27 28 29 30 31
000
FTUS41 KRLX 190800 AAA
TAFEKN
TAF AMD
KEKN 190830Z 1909/2006 00000KT 4SM BR BKN015 OVC080
     FM191100 00000KT 3SM BR BKN012
     FM191400 VRB03KT P6SM BKN015
     FM191600 27005KT P6SM BKN025
     FM191700 27007KT P6SM BKN040
     FM191900 28009G14KT P6SM SCT050=

USA.gov is the U.S. government's official web portal to all federal, state and local government web resources and services.